createdAt,value
2023-02-14T00:01:23.842Z,84.93
2023-02-14T00:03:51.255Z,91.93
2023-02-14T00:06:18.559Z,81.65
2023-02-14T00:08:46.290Z,93.97
2023-02-14T00:11:13.790Z,87.28
2023-02-14T00:14:01.631Z,90.07
2023-02-14T00:16:28.953Z,88.50
2023-02-14T00:19:05.955Z,94.78
2023-02-14T00:21:36.285Z,100.40
2023-02-14T00:24:09.590Z,97.20
2023-02-14T05:07:32.864Z,139.25
2023-02-14T05:12:53.104Z,138.75
2023-02-14T05:15:20.806Z,142.25
2023-02-14T05:17:48.197Z,149.05
2023-02-14T05:20:15.544Z,134.07
2023-02-14T05:22:42.946Z,148.40
2023-02-14T05:25:10.306Z,151.40
2023-02-14T05:27:37.520Z,149.50
2023-02-14T05:30:05.821Z,149.93
2023-02-14T05:32:33.213Z,146.45
2023-02-14T05:35:01.319Z,144.50
2023-02-14T05:37:28.641Z,147.38
2023-02-14T05:39:56.462Z,141.18
2023-02-14T05:42:23.686Z,155.27
2023-02-14T05:44:50.976Z,141.35
2023-02-14T05:47:18.215Z,142.85
2023-02-14T05:49:46.038Z,135.88
2023-02-14T05:52:13.278Z,141.00
2023-02-14T05:54:40.576Z,143.05
2023-02-14T05:57:07.845Z,135.25
2023-02-14T05:59:35.313Z,138.18
2023-02-14T06:02:03.065Z,142.65
2023-02-14T06:04:30.680Z,149.25
2023-02-14T06:06:58.048Z,148.15
2023-02-14T06:09:25.473Z,140.90
2023-02-14T06:11:55.260Z,140.25
2023-02-14T06:14:23.020Z,137.02
2023-02-14T06:16:50.990Z,135.32
2023-02-14T06:19:18.374Z,136.63
2023-02-14T06:21:46.845Z,156.05
2023-02-14T06:24:14.288Z,172.60
2023-02-14T06:26:42.131Z,171.52
2023-02-14T06:29:09.463Z,190.48
2023-02-14T06:31:37.361Z,190.10
2023-02-14T06:34:04.638Z,181.38
2023-02-14T06:36:32.281Z,188.25
2023-02-14T06:38:59.568Z,239.55
2023-02-14T06:41:26.976Z,202.70
2023-02-14T06:43:54.830Z,182.52
2023-02-14T06:46:22.452Z,174.43
2023-02-14T06:48:50.916Z,150.13
2023-02-14T06:51:18.278Z,149.00
2023-02-14T06:53:45.630Z,146.23
2023-02-14T06:56:12.963Z,147.90
2023-02-14T06:58:40.253Z,143.43
2023-02-14T07:01:07.625Z,128.00
2023-02-14T07:03:35.014Z,145.82
2023-02-14T07:06:02.396Z,146.27
2023-02-14T07:08:29.663Z,139.93
2023-02-14T07:10:58.740Z,137.43
2023-02-14T07:13:26.978Z,136.98
2023-02-14T07:15:54.529Z,139.63
2023-02-14T07:18:21.993Z,134.05
2023-02-14T07:20:50.729Z,130.15
2023-02-14T07:23:18.459Z,127.68
2023-02-14T07:25:45.830Z,138.07
2023-02-14T07:28:13.599Z,135.25
2023-02-14T07:30:40.973Z,133.77
2023-02-14T07:33:08.382Z,131.60
2023-02-14T07:35:36.517Z,132.20
2023-02-14T07:38:03.899Z,132.00
2023-02-14T07:40:31.161Z,129.68
2023-02-14T07:43:00.758Z,133.30
2023-02-14T07:45:28.079Z,132.02
2023-02-14T07:47:55.714Z,138.85
2023-02-14T07:50:23.889Z,127.80
2023-02-14T07:52:51.278Z,130.15
2023-02-14T07:55:19.324Z,129.70
2023-02-14T07:57:49.847Z,135.02
2023-02-14T08:00:18.780Z,129.40
2023-02-14T08:02:47.163Z,138.30
2023-02-14T08:05:15.623Z,135.30
2023-02-14T08:07:44.353Z,148.43
2023-02-14T08:10:13.122Z,136.80
2023-02-14T08:12:59.443Z,147.57
2023-02-14T08:15:53.295Z,143.07
2023-02-14T08:18:27.168Z,135.27
2023-02-14T08:20:55.200Z,123.82
2023-02-14T08:23:23.031Z,124.80
2023-02-14T08:25:52.271Z,124.63
2023-02-14T08:28:23.308Z,124.05
2023-02-14T08:30:51.325Z,124.57
2023-02-14T08:33:19.296Z,123.57
2023-02-14T08:35:46.982Z,115.22
2023-02-14T08:38:14.847Z,116.50
2023-02-14T08:40:42.880Z,113.72
2023-02-14T08:43:11.234Z,114.32
2023-02-14T08:45:38.786Z,107.65
2023-02-14T08:48:09.465Z,109.15
2023-02-14T08:50:38.026Z,110.72
2023-02-14T08:53:10.256Z,108.55
2023-02-14T08:55:38.354Z,98.25
2023-02-14T08:58:06.750Z,103.28
2023-02-14T09:00:34.691Z,111.53
2023-02-14T09:03:02.493Z,100.80
2023-02-14T09:05:30.808Z,100.22
2023-02-14T09:07:58.510Z,110.60
2023-02-14T09:10:26.588Z,101.65
2023-02-14T09:12:53.982Z,112.40
2023-02-14T09:15:21.421Z,114.20
2023-02-14T09:17:51.044Z,110.32
2023-02-14T09:20:19.270Z,124.13
2023-02-14T09:22:48.643Z,98.38
2023-02-14T09:25:17.452Z,105.88
2023-02-14T09:27:44.923Z,113.05
2023-02-14T09:30:12.879Z,117.28
2023-02-14T09:32:40.241Z,113.47
2023-02-14T09:35:07.854Z,103.93
2023-02-14T09:37:35.243Z,114.85
2023-02-14T09:40:04.660Z,107.22
2023-02-14T09:42:46.692Z,103.43
2023-02-14T09:47:48.966Z,109.20
2023-02-14T09:50:42.446Z,103.20
2023-02-14T09:53:23.266Z,112.07
2023-02-14T09:56:04.577Z,108.88
2023-02-14T09:58:55.051Z,117.97
2023-02-14T10:01:27.761Z,109.20
2023-02-14T10:04:01.545Z,114.13
2023-02-14T10:06:44.030Z,106.72
2023-02-14T10:09:16.517Z,108.72
2023-02-14T10:11:46.389Z,106.47
2023-02-14T10:14:27.915Z,111.70
2023-02-14T10:17:08.035Z,106.78
2023-02-14T10:19:43.446Z,99.88
2023-02-14T10:22:16.411Z,106.97
2023-02-14T10:24:57.543Z,100.80
2023-02-14T10:27:42.261Z,95.63
2023-02-14T10:30:15.104Z,97.32
2023-02-14T10:32:53.224Z,102.68
2023-02-14T10:35:38.927Z,96.72
2023-02-14T10:38:35.101Z,106.18
2023-02-14T10:41:20.916Z,95.72
2023-02-14T10:44:03.401Z,96.78
2023-02-14T10:46:53.208Z,100.72
2023-02-14T10:49:57.807Z,98.07
2023-02-14T10:52:43.903Z,91.00
2023-02-14T10:55:32.361Z,100.63
2023-02-14T10:58:02.997Z,101.15
2023-02-14T11:00:37.442Z,95.05
2023-02-14T11:03:09.489Z,90.65
2023-02-14T11:05:44.979Z,94.32
2023-02-14T11:08:22.971Z,92.18
2023-02-14T11:10:51.115Z,109.75
2023-02-14T11:13:37.280Z,97.88
2023-02-14T11:16:09.039Z,99.03
2023-02-14T11:18:40.954Z,104.90
2023-02-14T11:23:44.491Z,100.82
2023-02-14T11:26:23.086Z,100.55
2023-02-14T11:28:55.650Z,104.10
2023-02-14T11:31:38.237Z,102.55
2023-02-14T11:34:27.573Z,100.55
2023-02-14T11:36:54.950Z,99.38
2023-02-14T11:39:33.074Z,92.55
2023-02-14T11:42:04.434Z,110.10
2023-02-14T11:44:33.998Z,96.82
2023-02-14T11:47:27.146Z,99.00
2023-02-14T11:50:01.377Z,104.88
2023-02-14T11:52:30.867Z,97.90
2023-02-14T11:54:59.182Z,96.13
2023-02-14T11:57:35.220Z,89.32
2023-02-14T12:00:14.118Z,90.70
2023-02-14T12:02:48.917Z,86.05
2023-02-14T12:05:36.790Z,93.78
2023-02-14T12:08:06.493Z,94.60
2023-02-14T12:10:39.453Z,87.47
2023-02-14T12:13:09.848Z,93.20
2023-02-14T12:15:44.873Z,95.07
2023-02-14T12:18:40.361Z,83.70
2023-02-14T12:21:25.719Z,87.63
2023-02-14T12:24:18.631Z,86.03
2023-02-14T12:27:00.289Z,89.63
2023-02-14T12:29:41.973Z,84.65
2023-02-14T12:32:30.595Z,74.05
2023-02-14T12:35:07.290Z,82.05
2023-02-14T12:38:04.421Z,90.13
2023-02-14T12:40:50.513Z,89.03
2023-02-14T12:43:45.384Z,91.05
2023-02-14T12:46:29.864Z,83.32
2023-02-14T12:49:22.548Z,81.18
2023-02-14T12:52:28.482Z,74.93
2023-02-14T12:55:18.270Z,79.47
2023-02-14T12:58:05.474Z,79.53
2023-02-14T13:00:53.698Z,73.35
2023-02-14T13:03:20.917Z,85.60
2023-02-14T13:06:05.461Z,86.88
2023-02-14T13:09:22.309Z,85.85
2023-02-14T13:12:12.916Z,89.10
2023-02-14T13:14:59.258Z,85.28
2023-02-14T13:17:46.433Z,87.85
2023-02-14T13:20:45.013Z,84.15
2023-02-14T13:23:19.103Z,89.78
2023-02-14T13:25:58.194Z,87.78
2023-02-14T13:28:27.296Z,89.82
2023-02-14T13:30:56.313Z,88.30
2023-02-14T13:33:37.991Z,88.75
2023-02-14T13:36:08.851Z,87.88
2023-02-14T13:38:51.945Z,93.23
2023-02-14T13:41:22.356Z,90.30
2023-02-14T13:43:52.907Z,87.60
2023-02-14T13:46:32.181Z,97.05
2023-02-14T13:49:31.808Z,85.18
2023-02-14T13:52:03.486Z,89.72
2023-02-14T13:54:34.335Z,93.10
2023-02-14T13:57:31.487Z,90.80
2023-02-14T14:00:17.404Z,87.10
2023-02-14T14:02:48.376Z,87.90
2023-02-14T14:05:30.735Z,87.75
2023-02-14T14:08:23.222Z,84.57
2023-02-14T14:10:55.837Z,86.22
2023-02-14T14:13:41.550Z,87.72
2023-02-14T14:16:27.529Z,86.88
2023-02-14T14:19:09.700Z,81.78
2023-02-14T14:21:41.281Z,86.55
2023-02-14T14:26:58.191Z,87.35
2023-02-14T14:29:32.590Z,88.78
2023-02-14T14:32:08.904Z,85.25
2023-02-14T14:34:36.227Z,89.57
2023-02-14T14:37:06.750Z,90.07
2023-02-14T14:39:35.686Z,85.43
2023-02-14T14:42:15.126Z,95.95
2023-02-14T14:44:53.305Z,88.70
2023-02-14T14:47:37.854Z,92.90
2023-02-14T14:50:10.238Z,94.03
2023-02-14T14:52:41.787Z,96.85
2023-02-14T14:55:21.184Z,93.80
2023-02-14T14:57:56.996Z,102.93
2023-02-14T15:00:28.950Z,102.72
2023-02-14T15:02:57.904Z,96.75
2023-02-14T15:05:38.671Z,91.03
2023-02-14T15:08:21.988Z,97.78
2023-02-14T15:11:04.504Z,96.93
2023-02-14T15:13:57.498Z,101.97
2023-02-14T15:16:32.432Z,97.15
2023-02-14T15:19:10.470Z,105.88
2023-02-14T15:21:44.224Z,106.00
2023-02-14T15:24:16.040Z,95.20
2023-02-14T15:26:48.216Z,100.03
2023-02-14T15:29:27.672Z,98.47
2023-02-14T15:32:00.444Z,97.90
2023-02-14T15:34:32.586Z,102.60
2023-02-14T15:37:06.252Z,104.90
2023-02-14T15:39:37.823Z,95.03
2023-02-14T15:42:19.584Z,100.07
2023-02-14T15:44:46.954Z,103.28
2023-02-14T15:47:16.222Z,97.78
2023-02-14T15:49:46.606Z,94.55
2023-02-14T15:52:16.153Z,94.82
2023-02-14T15:54:47.237Z,101.32
2023-02-14T15:57:29.566Z,110.47
2023-02-14T15:59:57.219Z,103.20
2023-02-14T16:02:36.679Z,108.03
2023-02-14T16:05:15.872Z,108.20
2023-02-14T16:08:05.915Z,98.65
2023-02-14T16:10:34.536Z,98.72
2023-02-14T16:13:20.708Z,101.38
2023-02-14T16:16:06.627Z,94.03
2023-02-14T16:18:38.983Z,97.13
2023-02-14T16:21:33.197Z,97.20
2023-02-14T16:24:07.142Z,89.50
2023-02-14T16:26:35.887Z,99.25
2023-02-14T16:29:04.910Z,98.22
2023-02-14T16:31:34.345Z,104.78
2023-02-14T16:34:01.844Z,104.43
2023-02-14T16:36:31.944Z,100.97
2023-02-14T16:39:03.281Z,107.13
2023-02-14T16:41:33.136Z,103.82
2023-02-14T16:44:00.737Z,92.93
2023-02-14T16:46:35.362Z,100.15
2023-02-14T16:49:02.723Z,103.18
2023-02-14T16:51:33.861Z,117.68
2023-02-14T16:54:06.484Z,115.38
2023-02-14T16:56:42.492Z,108.32
2023-02-14T16:59:10.771Z,103.03
2023-02-14T17:01:38.083Z,97.00
2023-02-14T17:04:05.844Z,95.82
2023-02-14T17:06:35.947Z,110.15
2023-02-14T17:09:08.940Z,97.50
2023-02-14T17:11:42.264Z,91.93
2023-02-14T17:14:13.671Z,99.00
2023-02-14T17:16:42.178Z,95.07
2023-02-14T17:19:10.335Z,97.03
2023-02-14T17:21:38.452Z,102.05
2023-02-14T17:24:05.905Z,106.43
2023-02-14T17:26:33.878Z,103.25
2023-02-14T17:29:01.612Z,87.57
2023-02-14T17:31:29.100Z,89.78
2023-02-14T17:33:56.673Z,88.93
2023-02-14T17:36:24.657Z,100.35
2023-02-14T17:38:54.075Z,98.95
2023-02-14T17:41:26.520Z,100.68
2023-02-14T17:43:54.870Z,111.78
2023-02-14T17:46:22.258Z,100.03
2023-02-14T17:48:50.103Z,118.10
2023-02-14T17:51:20.352Z,116.45
2023-02-14T17:53:48.902Z,114.80
2023-02-14T17:56:22.955Z,126.43
2023-02-14T17:58:51.873Z,123.60
2023-02-14T18:01:22.232Z,124.95
2023-02-14T18:03:51.874Z,122.00
2023-02-14T18:06:19.757Z,107.22
2023-02-14T18:08:49.885Z,116.57
2023-02-14T18:11:19.462Z,118.93
2023-02-14T18:13:47.192Z,107.32
2023-02-14T18:16:18.004Z,114.95
2023-02-14T18:18:45.929Z,125.38
2023-02-14T18:21:15.810Z,128.77
2023-02-14T18:23:43.442Z,114.45
2023-02-14T18:26:13.229Z,117.22
2023-02-14T18:28:41.281Z,120.38
2023-02-14T18:31:15.269Z,112.13
2023-02-14T18:33:43.783Z,107.72
2023-02-14T18:36:14.084Z,121.30
2023-02-14T18:38:43.407Z,127.88
2023-02-14T18:41:14.058Z,102.88
2023-02-14T18:43:45.223Z,108.82
2023-02-14T18:46:18.547Z,116.68
2023-02-14T18:48:46.293Z,112.07
2023-02-14T18:51:19.177Z,107.93
2023-02-14T18:53:47.880Z,110.03
2023-02-14T18:56:17.520Z,108.65
2023-02-14T18:58:48.016Z,100.30
2023-02-14T19:01:18.093Z,111.72
2023-02-14T19:03:52.890Z,107.32
2023-02-14T19:06:21.511Z,113.93
2023-02-14T19:08:50.195Z,120.75
2023-02-14T19:11:20.218Z,114.72
2023-02-14T19:13:50.044Z,120.05
2023-02-14T19:16:21.028Z,108.05
2023-02-14T19:18:49.824Z,120.20
2023-02-14T19:21:22.370Z,127.43
2023-02-14T19:23:49.896Z,132.40
2023-02-14T19:26:23.335Z,131.23
2023-02-14T19:28:59.524Z,142.40
2023-02-14T19:31:27.821Z,136.68
2023-02-14T19:33:55.465Z,143.07
2023-02-14T19:36:24.397Z,137.13
2023-02-14T19:38:53.485Z,122.47
2023-02-14T19:41:24.860Z,121.40
2023-02-14T19:43:53.081Z,134.75
2023-02-14T19:46:21.842Z,125.63
2023-02-14T19:48:49.715Z,106.18
2023-02-14T19:51:29.682Z,122.85
2023-02-14T19:53:58.902Z,110.72
2023-02-14T19:56:28.969Z,120.72
2023-02-14T19:58:56.771Z,107.72
2023-02-14T20:01:31.885Z,127.25
2023-02-14T20:03:59.213Z,139.18
2023-02-14T20:06:29.243Z,138.55
2023-02-14T20:08:57.732Z,140.18
2023-02-14T20:11:30.590Z,137.80
2023-02-14T20:13:58.996Z,140.52
2023-02-14T20:16:28.233Z,139.35
2023-02-14T20:18:56.507Z,127.50
2023-02-14T20:21:28.205Z,110.75
2023-02-14T20:24:01.012Z,131.55
2023-02-14T20:26:30.975Z,117.30
2023-02-14T20:28:59.791Z,116.88
2023-02-14T20:31:27.165Z,132.02
2023-02-14T20:33:55.888Z,116.47
2023-02-14T20:36:24.866Z,121.70
2023-02-14T20:38:57.166Z,116.25
2023-02-14T20:41:27.621Z,118.07
2023-02-14T20:43:55.985Z,117.70
2023-02-14T20:46:23.470Z,118.88
2023-02-14T20:48:51.046Z,120.03
2023-02-14T20:51:20.920Z,103.78
2023-02-14T20:53:48.905Z,98.00
2023-02-14T20:56:17.201Z,107.95
2023-02-14T20:58:44.795Z,98.68
2023-02-14T21:01:15.332Z,104.05
2023-02-14T21:03:46.694Z,94.93
2023-02-14T21:06:14.996Z,103.70
2023-02-14T21:08:43.602Z,100.28
2023-02-14T21:11:13.437Z,114.50
2023-02-14T21:13:41.386Z,110.50
2023-02-14T21:16:12.486Z,108.95
2023-02-14T21:18:40.233Z,118.57
2023-02-14T21:21:13.443Z,110.88
2023-02-14T21:23:41.919Z,108.38
2023-02-14T21:26:09.395Z,109.97
2023-02-14T21:28:36.826Z,120.85
2023-02-14T21:31:11.065Z,117.85
2023-02-14T21:33:38.858Z,107.80
2023-02-14T21:36:12.115Z,123.05
2023-02-14T21:38:39.766Z,129.95
2023-02-14T21:41:10.694Z,125.05
2023-02-14T21:43:40.617Z,129.40
2023-02-14T21:46:14.660Z,118.18
2023-02-14T21:49:02.587Z,110.38
2023-02-14T21:51:30.237Z,116.10
2023-02-14T21:53:59.785Z,122.20
2023-02-14T21:56:28.195Z,125.85
2023-02-14T21:58:56.145Z,121.20
2023-02-14T22:01:29.098Z,116.50
2023-02-14T22:03:56.782Z,117.30
